sensor_id;sensor_type;location;lat;lon;timestamp;pressure;altitude;pressure_sealevel;temperature;humidity
5522;BME280;2783;48.730;8.006;2023-05-02T00:01:21;100260.84;;;12.73;99.42
5522;BME280;2783;48.730;8.006;2023-05-02T00:03:47;100261.88;;;12.69;99.51
5522;BME280;2783;48.730;8.006;2023-05-02T00:06:12;100256.47;;;12.71;99.14
5522;BME280;2783;48.730;8.006;2023-05-02T00:08:37;100265.41;;;12.70;98.99
5522;BME280;2783;48.730;8.006;2023-05-02T00:11:03;100259.19;;;12.69;99.19
5522;BME280;2783;48.730;8.006;2023-05-02T00:13:28;100268.34;;;12.62;99.09
5522;BME280;2783;48.730;8.006;2023-05-02T00:15:53;100263.13;;;12.59;99.01
5522;BME280;2783;48.730;8.006;2023-05-02T00:18:18;100263.25;;;12.56;98.78
5522;BME280;2783;48.730;8.006;2023-05-02T00:20:44;100264.28;;;12.52;99.77
5522;BME280;2783;48.730;8.006;2023-05-02T00:23:09;100264.28;;;12.52;99.82
5522;BME280;2783;48.730;8.006;2023-05-02T00:25:36;100264.44;;;12.48;100.00
5522;BME280;2783;48.730;8.006;2023-05-02T00:28:01;100265.22;;;12.51;100.00
5522;BME280;2783;48.730;8.006;2023-05-02T00:30:26;100274.16;;;12.50;100.00
5522;BME280;2783;48.730;8.006;2023-05-02T00:32:51;100276.13;;;12.45;100.00
5522;BME280;2783;48.730;8.006;2023-05-02T00:35:18;100272.50;;;12.46;100.00
5522;BME280;2783;48.730;8.006;2023-05-02T00:37:43;100279.56;;;12.47;100.00
5522;BME280;2783;48.730;8.006;2023-05-02T00:40:08;100273.41;;;12.47;100.00
5522;BME280;2783;48.730;8.006;2023-05-02T00:42:34;100273.22;;;12.51;100.00
5522;BME280;2783;48.730;8.006;2023-05-02T00:45:00;100270.56;;;12.51;100.00
5522;BME280;2783;48.730;8.006;2023-05-02T00:47:26;100271.50;;;12.49;100.00
5522;BME280;2783;48.730;8.006;2023-05-02T00:49:51;100267.28;;;12.43;100.00
5522;BME280;2783;48.730;8.006;2023-05-02T00:52:16;100270.88;;;12.42;100.00
5522;BME280;2783;48.730;8.006;2023-05-02T00:54:42;100284.44;;;12.36;100.00
5522;BME280;2783;48.730;8.006;2023-05-02T00:57:07;100272.13;;;12.32;100.00
5522;BME280;2783;48.730;8.006;2023-05-02T00:59:36;100268.97;;;12.21;100.00
5522;BME280;2783;48.730;8.006;2023-05-02T01:02:16;100264.03;;;12.11;100.00
5522;BME280;2783;48.730;8.006;2023-05-02T01:04:56;100273.47;;;11.94;100.00
5522;BME280;2783;48.730;8.006;2023-05-02T01:07:34;100276.69;;;11.78;100.00
5522;BME280;2783;48.730;8.006;2023-05-02T01:10:16;100275.34;;;11.65;100.00
5522;BME280;2783;48.730;8.006;2023-05-02T01:15:15;100280.91;;;11.57;100.00
5522;BME280;2783;48.730;8.006;2023-05-02T01:17:41;100280.97;;;11.56;100.00
5522;BME280;2783;48.730;8.006;2023-05-02T01:20:09;100290.78;;;11.54;100.00
5522;BME280;2783;48.730;8.006;2023-05-02T01:22:37;100282.69;;;11.57;100.00
5522;BME280;2783;48.730;8.006;2023-05-02T01:30:18;100273.41;;;11.70;100.00
5522;BME280;2783;48.730;8.006;2023-05-02T01:32:45;100281.41;;;11.70;100.00
5522;BME280;2783;48.730;8.006;2023-05-02T01:35:13;100283.00;;;11.75;100.00
5522;BME280;2783;48.730;8.006;2023-05-02T01:37:39;100282.91;;;11.78;100.00
5522;BME280;2783;48.730;8.006;2023-05-02T01:40:05;100284.50;;;11.84;100.00
5522;BME280;2783;48.730;8.006;2023-05-02T01:42:31;100282.72;;;11.83;100.00
5522;BME280;2783;48.730;8.006;2023-05-02T01:44:58;100288.91;;;11.85;100.00
5522;BME280;2783;48.730;8.006;2023-05-02T01:47:24;100298.78;;;11.81;100.00
5522;BME280;2783;48.730;8.006;2023-05-02T01:49:51;100299.78;;;11.79;100.00
5522;BME280;2783;48.730;8.006;2023-05-02T01:52:16;100301.72;;;11.74;100.00
5522;BME280;2783;48.730;8.006;2023-05-02T01:54:45;100309.75;;;11.72;100.00
5522;BME280;2783;48.730;8.006;2023-05-02T01:57:12;100306.22;;;11.72;100.00
5522;BME280;2783;48.730;8.006;2023-05-02T01:59:39;100317.88;;;11.68;100.00
5522;BME280;2783;48.730;8.006;2023-05-02T02:02:05;100315.31;;;11.65;100.00
5522;BME280;2783;48.730;8.006;2023-05-02T02:04:31;100324.31;;;11.61;100.00
5522;BME280;2783;48.730;8.006;2023-05-02T02:07:03;100330.53;;;11.60;100.00
5522;BME280;2783;48.730;8.006;2023-05-02T02:09:30;100332.13;;;11.67;100.00
5522;BME280;2783;48.730;8.006;2023-05-02T02:12:01;100330.09;;;11.75;100.00
5522;BME280;2783;48.730;8.006;2023-05-02T02:14:30;100312.47;;;11.71;100.00
5522;BME280;2783;48.730;8.006;2023-05-02T02:16:57;100331.38;;;11.89;100.00
5522;BME280;2783;48.730;8.006;2023-05-02T02:19:25;100337.38;;;11.96;100.00
5522;BME280;2783;48.730;8.006;2023-05-02T02:21:51;100336.38;;;12.00;100.00
5522;BME280;2783;48.730;8.006;2023-05-02T02:24:18;100344.09;;;12.08;100.00
5522;BME280;2783;48.730;8.006;2023-05-02T02:26:45;100339.69;;;12.07;100.00
5522;BME280;2783;48.730;8.006;2023-05-02T02:29:10;100347.91;;;12.01;100.00
5522;BME280;2783;48.730;8.006;2023-05-02T02:31:35;100345.25;;;12.01;100.00
5522;BME280;2783;48.730;8.006;2023-05-02T02:34:03;100345.09;;;12.05;100.00
5522;BME280;2783;48.730;8.006;2023-05-02T02:36:31;100346.94;;;12.03;100.00
5522;BME280;2783;48.730;8.006;2023-05-02T02:41:33;100340.53;;;12.09;100.00
5522;BME280;2783;48.730;8.006;2023-05-02T02:44:14;100342.38;;;12.07;100.00
5522;BME280;2783;48.730;8.006;2023-05-02T02:52:10;100353.16;;;12.04;100.00
5522;BME280;2783;48.730;8.006;2023-05-02T02:57:14;100359.44;;;12.01;100.00
5522;BME280;2783;48.730;8.006;2023-05-02T03:00:05;100359.44;;;12.01;100.00
5522;BME280;2783;48.730;8.006;2023-05-02T03:02:27;100361.91;;;12.07;100.00
5522;BME280;2783;48.730;8.006;2023-05-02T03:04:54;100366.97;;;12.15;100.00
5522;BME280;2783;48.730;8.006;2023-05-02T03:07:21;100369.47;;;12.21;100.00
5522;BME280;2783;48.730;8.006;2023-05-02T03:09:46;100385.31;;;12.25;100.00
5522;BME280;2783;48.730;8.006;2023-05-02T03:12:12;100385.31;;;12.25;100.00
5522;BME280;2783;48.730;8.006;2023-05-02T03:14:37;100397.75;;;12.25;100.00
5522;BME280;2783;48.730;8.006;2023-05-02T03:17:03;100387.25;;;12.20;100.00
5522;BME280;2783;48.730;8.006;2023-05-02T03:19:28;100400.53;;;12.22;100.00
5522;BME280;2783;48.730;8.006;2023-05-02T03:21:54;100401.41;;;12.22;100.00
5522;BME280;2783;48.730;8.006;2023-05-02T03:24:19;100393.34;;;12.24;100.00
5522;BME280;2783;48.730;8.006;2023-05-02T03:26:44;100401.31;;;12.25;100.00
5522;BME280;2783;48.730;8.006;2023-05-02T03:29:11;100403.88;;;12.28;100.00
5522;BME280;2783;48.730;8.006;2023-05-02T03:31:37;100397.47;;;12.32;100.00
5522;BME280;2783;48.730;8.006;2023-05-02T03:34:02;100392.97;;;12.34;100.00
5522;BME280;2783;48.730;8.006;2023-05-02T03:36:27;100396.41;;;12.38;100.00
5522;BME280;2783;48.730;8.006;2023-05-02T03:38:52;100398.03;;;12.43;100.00
5522;BME280;2783;48.730;8.006;2023-05-02T03:41:18;100407.63;;;12.47;100.00
5522;BME280;2783;48.730;8.006;2023-05-02T03:43:45;100398.72;;;12.48;100.00
5522;BME280;2783;48.730;8.006;2023-05-02T03:46:10;100402.38;;;12.46;100.00
5522;BME280;2783;48.730;8.006;2023-05-02T03:48:36;100397.19;;;12.41;100.00
5522;BME280;2783;48.730;8.006;2023-05-02T03:51:02;100399.25;;;12.33;100.00
5522;BME280;2783;48.730;8.006;2023-05-02T03:53:28;100391.81;;;12.17;100.00
5522;BME280;2783;48.730;8.006;2023-05-02T03:55:53;100397.59;;;12.03;100.00
5522;BME280;2783;48.730;8.006;2023-05-02T03:58:19;100399.56;;;11.97;100.00
5522;BME280;2783;48.730;8.006;2023-05-02T04:00:44;100409.66;;;11.87;100.00
5522;BME280;2783;48.730;8.006;2023-05-02T04:03:10;100408.88;;;11.83;100.00
5522;BME280;2783;48.730;8.006;2023-05-02T04:05:35;100409.88;;;11.81;100.00
5522;BME280;2783;48.730;8.006;2023-05-02T04:08:00;100416.25;;;11.75;100.00
5522;BME280;2783;48.730;8.006;2023-05-02T04:10:26;100419.84;;;11.74;100.00
5522;BME280;2783;48.730;8.006;2023-05-02T04:12:52;100426.31;;;11.66;100.00
5522;BME280;2783;48.730;8.006;2023-05-02T04:15:17;100435.34;;;11.60;100.00
5522;BME280;2783;48.730;8.006;2023-05-02T04:17:42;100446.97;;;11.58;100.00
5522;BME280;2783;48.730;8.006;2023-05-02T04:20:07;100434.78;;;11.49;100.00
5522;BME280;2783;48.730;8.006;2023-05-02T04:22:33;100456.25;;;11.43;100.00
5522;BME280;2783;48.730;8.006;2023-05-02T04:24:58;100462.75;;;11.35;100.00
5522;BME280;2783;48.730;8.006;2023-05-02T04:27:24;100458.59;;;11.25;100.00
5522;BME280;2783;48.730;8.006;2023-05-02T04:29:49;100457.00;;;11.18;100.00
5522;BME280;2783;48.730;8.006;2023-05-02T04:32:15;100462.47;;;11.13;100.00
5522;BME280;2783;48.730;8.006;2023-05-02T04:34:40;100467.91;;;11.10;100.00
5522;BME280;2783;48.730;8.006;2023-05-02T04:37:06;100467.00;;;11.10;100.00
5522;BME280;2783;48.730;8.006;2023-05-02T04:39:31;100465.19;;;11.12;100.00
5522;BME280;2783;48.730;8.006;2023-05-02T04:41:57;100473.97;;;11.14;100.00
5522;BME280;2783;48.730;8.006;2023-05-02T04:44:22;100477.47;;;11.16;100.00
5522;BME280;2783;48.730;8.006;2023-05-02T04:46:47;100467.47;;;11.24;100.00
5522;BME280;2783;48.730;8.006;2023-05-02T04:49:13;100473.47;;;11.32;100.00
5522;BME280;2783;48.730;8.006;2023-05-02T04:51:38;100472.28;;;11.42;100.00
5522;BME280;2783;48.730;8.006;2023-05-02T04:54:03;100484.22;;;11.59;100.00
5522;BME280;2783;48.730;8.006;2023-05-02T04:56:28;100488.41;;;11.68;100.00
5522;BME280;2783;48.730;8.006;2023-05-02T04:58:54;100486.59;;;11.70;100.00
5522;BME280;2783;48.730;8.006;2023-05-02T05:01:19;100499.56;;;11.82;100.00
5522;BME280;2783;48.730;8.006;2023-05-02T05:03:44;100500.97;;;11.93;100.00
5522;BME280;2783;48.730;8.006;2023-05-02T05:06:10;100504.22;;;12.03;100.00
5522;BME280;2783;48.730;8.006;2023-05-02T05:08:36;100502.09;;;12.14;100.00
5522;BME280;2783;48.730;8.006;2023-05-02T05:11:01;100508.56;;;12.35;100.00
5522;BME280;2783;48.730;8.006;2023-05-02T05:13:29;100512.44;;;12.52;100.00
5522;BME280;2783;48.730;8.006;2023-05-02T05:15:54;100513.59;;;12.71;100.00
5522;BME280;2783;48.730;8.006;2023-05-02T05:18:20;100514.69;;;12.90;100.00
5522;BME280;2783;48.730;8.006;2023-05-02T05:20:45;100518.41;;;13.12;100.00
5522;BME280;2783;48.730;8.006;2023-05-02T05:23:11;100528.44;;;13.31;100.00
5522;BME280;2783;48.730;8.006;2023-05-02T05:25:36;100529.75;;;13.44;100.00
5522;BME280;2783;48.730;8.006;2023-05-02T05:28:01;100533.44;;;13.87;100.00
5522;BME280;2783;48.730;8.006;2023-05-02T05:30:27;100539.69;;;14.11;97.77
5522;BME280;2783;48.730;8.006;2023-05-02T05:32:54;100538.84;;;14.09;94.39
5522;BME280;2783;48.730;8.006;2023-05-02T05:35:20;100540.97;;;14.01;91.83
5522;BME280;2783;48.730;8.006;2023-05-02T05:37:45;100544.47;;;14.03;91.46
5522;BME280;2783;48.730;8.006;2023-05-02T05:40:10;100551.84;;;14.19;90.79
5522;BME280;2783;48.730;8.006;2023-05-02T05:42:36;100545.47;;;14.22;89.63
5522;BME280;2783;48.730;8.006;2023-05-02T05:45:01;100561.78;;;14.16;88.36
5522;BME280;2783;48.730;8.006;2023-05-02T05:47:26;100559.72;;;14.22;89.01
5522;BME280;2783;48.730;8.006;2023-05-02T05:49:52;100562.19;;;14.28;88.21
5522;BME280;2783;48.730;8.006;2023-05-02T05:52:18;100564.38;;;14.17;87.81
5522;BME280;2783;48.730;8.006;2023-05-02T05:54:43;100563.69;;;14.12;89.34
5522;BME280;2783;48.730;8.006;2023-05-02T05:57:08;100564.59;;;14.36;88.49
5522;BME280;2783;48.730;8.006;2023-05-02T05:59:34;100572.59;;;14.59;88.98
5522;BME280;2783;48.730;8.006;2023-05-02T06:02:00;100570.06;;;14.76;87.69
5522;BME280;2783;48.730;8.006;2023-05-02T06:04:25;100564.84;;;14.73;85.70
5522;BME280;2783;48.730;8.006;2023-05-02T06:06:50;100563.66;;;14.59;84.23
5522;BME280;2783;48.730;8.006;2023-05-02T06:09:17;100575.75;;;14.69;84.97
5522;BME280;2783;48.730;8.006;2023-05-02T06:11:43;100578.00;;;14.79;84.74
5522;BME280;2783;48.730;8.006;2023-05-02T06:14:08;100579.31;;;14.91;84.74
5522;BME280;2783;48.730;8.006;2023-05-02T06:16:33;100580.16;;;14.91;84.59
5522;BME280;2783;48.730;8.006;2023-05-02T06:18:59;100585.84;;;15.05;85.91
5522;BME280;2783;48.730;8.006;2023-05-02T06:21:24;100593.75;;;15.08;85.19
5522;BME280;2783;48.730;8.006;2023-05-02T06:23:49;100584.06;;;15.26;84.58
5522;BME280;2783;48.730;8.006;2023-05-02T06:26:14;100576.28;;;15.41;83.64
5522;BME280;2783;48.730;8.006;2023-05-02T06:28:40;100574.25;;;15.46;82.01
5522;BME280;2783;48.730;8.006;2023-05-02T06:31:05;100587.31;;;15.54;81.51
5522;BME280;2783;48.730;8.006;2023-05-02T06:33:31;100590.53;;;15.62;82.06
5522;BME280;2783;48.730;8.006;2023-05-02T06:35:57;100590.59;;;15.80;80.28
5522;BME280;2783;48.730;8.006;2023-05-02T06:38:22;100596.75;;;16.03;78.86
5522;BME280;2783;48.730;8.006;2023-05-02T06:40:48;100600.69;;;16.33;78.16
5522;BME280;2783;48.730;8.006;2023-05-02T06:43:13;100597.09;;;16.71;77.08
5522;BME280;2783;48.730;8.006;2023-05-02T06:45:39;100607.63;;;17.11;75.09
5522;BME280;2783;48.730;8.006;2023-05-02T06:48:04;100610.34;;;17.28;72.37
5522;BME280;2783;48.730;8.006;2023-05-02T06:50:30;100621.69;;;17.35;71.00
5522;BME280;2783;48.730;8.006;2023-05-02T06:52:55;100623.72;;;16.94;72.45
5522;BME280;2783;48.730;8.006;2023-05-02T06:55:20;100620.88;;;16.97;73.67
5522;BME280;2783;48.730;8.006;2023-05-02T06:57:47;100621.81;;;16.96;73.39
5522;BME280;2783;48.730;8.006;2023-05-02T07:00:13;100625.25;;;16.81;74.53
5522;BME280;2783;48.730;8.006;2023-05-02T07:02:38;100631.75;;;16.77;75.14
5522;BME280;2783;48.730;8.006;2023-05-02T07:05:03;100631.22;;;16.69;75.95
5522;BME280;2783;48.730;8.006;2023-05-02T07:07:29;100639.56;;;16.63;76.57
5522;BME280;2783;48.730;8.006;2023-05-02T07:09:54;100646.31;;;16.53;77.34
5522;BME280;2783;48.730;8.006;2023-05-02T07:12:19;100652.44;;;16.36;78.26
5522;BME280;2783;48.730;8.006;2023-05-02T07:14:45;100648.56;;;16.23;78.65
5522;BME280;2783;48.730;8.006;2023-05-02T07:17:11;100653.28;;;15.98;78.40
5522;BME280;2783;48.730;8.006;2023-05-02T07:19:36;100647.31;;;15.92;79.54
5522;BME280;2783;48.730;8.006;2023-05-02T07:22:01;100654.59;;;15.90;80.74
5522;BME280;2783;48.730;8.006;2023-05-02T07:24:27;100662.69;;;15.88;81.41
5522;BME280;2783;48.730;8.006;2023-05-02T07:26:52;100651.34;;;15.81;80.39
5522;BME280;2783;48.730;8.006;2023-05-02T07:29:17;100654.16;;;15.78;81.21
5522;BME280;2783;48.730;8.006;2023-05-02T07:31:43;100645.00;;;15.84;80.35
5522;BME280;2783;48.730;8.006;2023-05-02T07:34:08;100647.59;;;15.86;81.29
5522;BME280;2783;48.730;8.006;2023-05-02T07:36:33;100643.97;;;15.87;80.28
5522;BME280;2783;48.730;8.006;2023-05-02T07:38:58;100649.91;;;15.95;80.35
5522;BME280;2783;48.730;8.006;2023-05-02T07:41:24;100645.91;;;16.03;79.99
5522;BME280;2783;48.730;8.006;2023-05-02T07:43:49;100653.13;;;16.21;80.21
5522;BME280;2783;48.730;8.006;2023-05-02T07:46:14;100654.59;;;16.28;79.77
5522;BME280;2783;48.730;8.006;2023-05-02T07:48:40;100648.69;;;16.40;78.76
5522;BME280;2783;48.730;8.006;2023-05-02T07:51:07;100655.63;;;16.44;77.39
5522;BME280;2783;48.730;8.006;2023-05-02T07:53:32;100648.19;;;16.51;77.00
5522;BME280;2783;48.730;8.006;2023-05-02T07:55:58;100651.41;;;16.59;74.90
5522;BME280;2783;48.730;8.006;2023-05-02T07:58:23;100648.50;;;16.63;74.81
5522;BME280;2783;48.730;8.006;2023-05-02T08:00:48;100658.88;;;16.89;74.93
5522;BME280;2783;48.730;8.006;2023-05-02T08:03:14;100657.81;;;17.29;74.05
5522;BME280;2783;48.730;8.006;2023-05-02T08:05:40;100664.22;;;17.62;72.37
5522;BME280;2783;48.730;8.006;2023-05-02T08:08:05;100661.81;;;18.07;72.45
5522;BME280;2783;48.730;8.006;2023-05-02T08:10:31;100657.66;;;18.34;69.60
5522;BME280;2783;48.730;8.006;2023-05-02T08:12:56;100662.78;;;18.56;67.62
5522;BME280;2783;48.730;8.006;2023-05-02T08:15:22;100657.81;;;18.80;65.07
5522;BME280;2783;48.730;8.006;2023-05-02T08:17:47;100667.59;;;19.44;65.59
5522;BME280;2783;48.730;8.006;2023-05-02T08:20:12;100664.53;;;20.10;61.19
5522;BME280;2783;48.730;8.006;2023-05-02T08:22:37;100666.81;;;20.45;57.68
5522;BME280;2783;48.730;8.006;2023-05-02T08:25:03;100669.50;;;20.59;57.80
5522;BME280;2783;48.730;8.006;2023-05-02T08:27:28;100664.13;;;21.28;57.69
5522;BME280;2783;48.730;8.006;2023-05-02T08:29:53;100677.72;;;21.53;55.08
5522;BME280;2783;48.730;8.006;2023-05-02T08:32:19;100666.84;;;21.94;54.10
5522;BME280;2783;48.730;8.006;2023-05-02T08:34:44;100677.28;;;22.25;52.76
5522;BME280;2783;48.730;8.006;2023-05-02T08:37:10;100676.22;;;22.53;54.14
5522;BME280;2783;48.730;8.006;2023-05-02T08:39:38;100680.09;;;22.86;50.61
5522;BME280;2783;48.730;8.006;2023-05-02T08:42:05;100680.03;;;23.11;49.99
5522;BME280;2783;48.730;8.006;2023-05-02T08:44:31;100685.78;;;23.19;51.17
5522;BME280;2783;48.730;8.006;2023-05-02T08:46:56;100686.16;;;23.38;50.74
5522;BME280;2783;48.730;8.006;2023-05-02T08:49:23;100681.75;;;23.96;49.23
5522;BME280;2783;48.730;8.006;2023-05-02T08:51:49;100679.91;;;23.73;48.43
5522;BME280;2783;48.730;8.006;2023-05-02T08:54:16;100683.31;;;23.87;46.83
5522;BME280;2783;48.730;8.006;2023-05-02T08:56:44;100686.16;;;24.09;47.24
5522;BME280;2783;48.730;8.006;2023-05-02T08:59:10;100681.91;;;24.51;47.48
5522;BME280;2783;48.730;8.006;2023-05-02T09:01:35;100689.09;;;24.52;43.75
5522;BME280;2783;48.730;8.006;2023-05-02T09:04:01;100684.78;;;24.60;45.59
5522;BME280;2783;48.730;8.006;2023-05-02T09:06:27;100689.03;;;24.76;44.97
5522;BME280;2783;48.730;8.006;2023-05-02T09:08:53;100682.63;;;24.53;44.09
5522;BME280;2783;48.730;8.006;2023-05-02T09:11:18;100688.38;;;24.61;45.10
5522;BME280;2783;48.730;8.006;2023-05-02T09:13:49;100698.53;;;23.66;46.55
5522;BME280;2783;48.730;8.006;2023-05-02T09:16:24;100691.91;;;23.47;48.29
5522;BME280;2783;48.730;8.006;2023-05-02T09:18:57;100694.66;;;23.58;47.55
5522;BME280;2783;48.730;8.006;2023-05-02T09:21:33;100691.94;;;23.81;45.09
5522;BME280;2783;48.730;8.006;2023-05-02T09:24:00;100698.72;;;23.03;47.86
5522;BME280;2783;48.730;8.006;2023-05-02T09:26:28;100696.41;;;22.61;49.19
5522;BME280;2783;48.730;8.006;2023-05-02T09:28:56;100702.66;;;22.37;51.41
5522;BME280;2783;48.730;8.006;2023-05-02T09:31:22;100706.66;;;22.31;52.28
5522;BME280;2783;48.730;8.006;2023-05-02T09:33:50;100694.41;;;22.88;49.54
5522;BME280;2783;48.730;8.006;2023-05-02T09:36:16;100698.78;;;22.78;49.03
5522;BME280;2783;48.730;8.006;2023-05-02T09:38:43;100700.84;;;22.62;49.11
5522;BME280;2783;48.730;8.006;2023-05-02T09:41:08;100708.09;;;22.37;48.83
5522;BME280;2783;48.730;8.006;2023-05-02T09:43:34;100703.78;;;22.59;50.28
5522;BME280;2783;48.730;8.006;2023-05-02T09:46:03;100706.31;;;23.11;48.63
5522;BME280;2783;48.730;8.006;2023-05-02T09:48:29;100707.50;;;23.56;49.45
5522;BME280;2783;48.730;8.006;2023-05-02T09:50:55;100699.00;;;23.84;47.69
5522;BME280;2783;48.730;8.006;2023-05-02T09:53:21;100698.59;;;24.01;45.82
5522;BME280;2783;48.730;8.006;2023-05-02T09:55:47;100699.47;;;24.47;48.31
5522;BME280;2783;48.730;8.006;2023-05-02T09:58:22;100703.38;;;24.78;46.84
5522;BME280;2783;48.730;8.006;2023-05-02T10:00:48;100694.31;;;24.99;45.38
5522;BME280;2783;48.730;8.006;2023-05-02T10:03:14;100700.50;;;25.23;44.90
5522;BME280;2783;48.730;8.006;2023-05-02T10:05:40;100700.50;;;25.23;43.65
5522;BME280;2783;48.730;8.006;2023-05-02T10:08:06;100698.03;;;24.98;44.39
5522;BME280;2783;48.730;8.006;2023-05-02T10:10:32;100697.69;;;25.14;43.96
5522;BME280;2783;48.730;8.006;2023-05-02T10:13:00;100695.69;;;24.94;43.91
5522;BME280;2783;48.730;8.006;2023-05-02T10:15:26;100691.59;;;25.43;44.66
5522;BME280;2783;48.730;8.006;2023-05-02T10:17:54;100698.94;;;25.63;42.07
5522;BME280;2783;48.730;8.006;2023-05-02T10:20:21;100695.78;;;25.79;45.70
5522;BME280;2783;48.730;8.006;2023-05-02T10:22:48;100697.22;;;25.62;42.31
5522;BME280;2783;48.730;8.006;2023-05-02T10:25:13;100694.28;;;25.54;41.87
5522;BME280;2783;48.730;8.006;2023-05-02T10:27:39;100695.72;;;25.69;42.22
5522;BME280;2783;48.730;8.006;2023-05-02T10:30:04;100699.25;;;25.49;42.37
5522;BME280;2783;48.730;8.006;2023-05-02T10:32:33;100691.41;;;25.56;41.10
5522;BME280;2783;48.730;8.006;2023-05-02T10:35:04;100691.06;;;25.49;42.20
5522;BME280;2783;48.730;8.006;2023-05-02T10:37:29;100685.69;;;25.59;41.88
5522;BME280;2783;48.730;8.006;2023-05-02T10:39:58;100696.94;;;25.65;41.80
5522;BME280;2783;48.730;8.006;2023-05-02T10:42:24;100686.31;;;25.94;40.98
5522;BME280;2783;48.730;8.006;2023-05-02T10:44:50;100695.44;;;26.36;40.30
5522;BME280;2783;48.730;8.006;2023-05-02T10:47:21;100685.97;;;26.60;39.70
5522;BME280;2783;48.730;8.006;2023-05-02T10:49:51;100692.66;;;26.56;42.22
5522;BME280;2783;48.730;8.006;2023-05-02T10:52:29;100682.28;;;27.01;43.05
5522;BME280;2783;48.730;8.006;2023-05-02T11:00:27;100690.19;;;26.74;42.35
5522;BME280;2783;48.730;8.006;2023-05-02T11:02:53;100685.31;;;26.27;41.45
5522;BME280;2783;48.730;8.006;2023-05-02T11:05:20;100684.84;;;26.22;39.63
5522;BME280;2783;48.730;8.006;2023-05-02T11:07:45;100686.31;;;26.67;41.27
5522;BME280;2783;48.730;8.006;2023-05-02T11:12:52;100675.34;;;26.97;37.56
5522;BME280;2783;48.730;8.006;2023-05-02T11:15:59;100682.19;;;27.12;39.43
5522;BME280;2783;48.730;8.006;2023-05-02T11:18:06;100685.19;;;26.08;40.34
5522;BME280;2783;48.730;8.006;2023-05-02T11:20:35;100671.44;;;25.66;42.14
5522;BME280;2783;48.730;8.006;2023-05-02T11:25:57;100665.19;;;26.28;40.25
5522;BME280;2783;48.730;8.006;2023-05-02T11:33:56;100670.13;;;27.14;37.49
5522;BME280;2783;48.730;8.006;2023-05-02T11:38:53;100668.03;;;26.97;37.68
5522;BME280;2783;48.730;8.006;2023-05-02T11:41:19;100671.06;;;27.34;39.05
5522;BME280;2783;48.730;8.006;2023-05-02T11:43:44;100667.75;;;27.40;37.57
5522;BME280;2783;48.730;8.006;2023-05-02T11:46:10;100668.19;;;27.45;36.79
5522;BME280;2783;48.730;8.006;2023-05-02T11:48:35;100656.00;;;27.68;38.58
5522;BME280;2783;48.730;8.006;2023-05-02T11:51:01;100653.84;;;27.53;37.00
5522;BME280;2783;48.730;8.006;2023-05-02T11:53:27;100661.47;;;27.59;37.21
5522;BME280;2783;48.730;8.006;2023-05-02T11:55:54;100660.84;;;26.87;37.62
5522;BME280;2783;48.730;8.006;2023-05-02T11:58:21;100658.50;;;26.11;38.72
5522;BME280;2783;48.730;8.006;2023-05-02T12:00:46;100656.06;;;25.76;40.78
5522;BME280;2783;48.730;8.006;2023-05-02T12:03:19;100663.00;;;25.38;40.99
5522;BME280;2783;48.730;8.006;2023-05-02T12:05:46;100662.03;;;24.95;43.37
5522;BME280;2783;48.730;8.006;2023-05-02T12:08:16;100655.00;;;24.92;44.34
5522;BME280;2783;48.730;8.006;2023-05-02T12:10:43;100658.50;;;25.26;42.29
5522;BME280;2783;48.730;8.006;2023-05-02T12:13:10;100661.25;;;25.79;40.91
5522;BME280;2783;48.730;8.006;2023-05-02T12:15:35;100662.16;;;26.42;39.80
5522;BME280;2783;48.730;8.006;2023-05-02T12:18:00;100662.84;;;26.85;42.71
5522;BME280;2783;48.730;8.006;2023-05-02T12:20:26;100666.53;;;26.54;40.91
5522;BME280;2783;48.730;8.006;2023-05-02T12:22:51;100667.22;;;25.94;41.61
5522;BME280;2783;48.730;8.006;2023-05-02T12:25:17;100682.47;;;24.89;43.48
5522;BME280;2783;48.730;8.006;2023-05-02T12:27:57;100677.88;;;24.11;44.57
5522;BME280;2783;48.730;8.006;2023-05-02T12:30:25;100686.22;;;23.50;46.46
5522;BME280;2783;48.730;8.006;2023-05-02T12:32:54;100691.13;;;23.08;49.61
5522;BME280;2783;48.730;8.006;2023-05-02T12:35:20;100682.06;;;22.59;51.29
5522;BME280;2783;48.730;8.006;2023-05-02T12:37:46;100686.19;;;22.27;51.12
5522;BME280;2783;48.730;8.006;2023-05-02T12:40:15;100686.38;;;21.99;51.59
5522;BME280;2783;48.730;8.006;2023-05-02T12:42:41;100679.78;;;21.76;54.28
5522;BME280;2783;48.730;8.006;2023-05-02T12:45:16;100687.53;;;21.68;52.41
5522;BME280;2783;48.730;8.006;2023-05-02T12:47:44;100693.06;;;21.67;53.68
5522;BME280;2783;48.730;8.006;2023-05-02T12:50:13;100691.38;;;21.78;54.71
5522;BME280;2783;48.730;8.006;2023-05-02T12:52:45;100687.31;;;21.71;50.77
5522;BME280;2783;48.730;8.006;2023-05-02T12:55:15;100685.50;;;22.11;51.21
5522;BME280;2783;48.730;8.006;2023-05-02T12:57:40;100690.63;;;22.91;49.63
5522;BME280;2783;48.730;8.006;2023-05-02T13:00:06;100695.19;;;23.63;45.24
5522;BME280;2783;48.730;8.006;2023-05-02T13:02:32;100679.50;;;24.13;43.61
5522;BME280;2783;48.730;8.006;2023-05-02T13:04:57;100693.59;;;24.18;44.65
5522;BME280;2783;48.730;8.006;2023-05-02T13:07:22;100690.56;;;23.76;43.68
5522;BME280;2783;48.730;8.006;2023-05-02T13:09:48;100692.78;;;23.47;45.39
5522;BME280;2783;48.730;8.006;2023-05-02T13:12:13;100703.50;;;23.12;46.53
5522;BME280;2783;48.730;8.006;2023-05-02T13:14:38;100699.75;;;22.77;48.27
5522;BME280;2783;48.730;8.006;2023-05-02T13:17:03;100704.13;;;22.55;49.93
5522;BME280;2783;48.730;8.006;2023-05-02T13:19:29;100707.88;;;22.27;47.27
5522;BME280;2783;48.730;8.006;2023-05-02T13:21:55;100695.06;;;22.16;49.20
5522;BME280;2783;48.730;8.006;2023-05-02T13:24:20;100696.22;;;22.00;47.43
5522;BME280;2783;48.730;8.006;2023-05-02T13:26:45;100701.91;;;21.83;48.37
5522;BME280;2783;48.730;8.006;2023-05-02T13:29:11;100701.16;;;21.67;47.70
5522;BME280;2783;48.730;8.006;2023-05-02T13:31:36;100695.25;;;21.48;46.56
5522;BME280;2783;48.730;8.006;2023-05-02T13:34:05;100692.94;;;21.42;48.04
5522;BME280;2783;48.730;8.006;2023-05-02T13:36:30;100695.41;;;21.32;51.29
5522;BME280;2783;48.730;8.006;2023-05-02T13:38:56;100693.00;;;21.28;50.11
5522;BME280;2783;48.730;8.006;2023-05-02T13:41:21;100696.28;;;21.33;52.87